Manitowoc — WDE3569 — position and weather

sailwx.info

Track history (hours):
 
Tides and Currents Weather Stations Pressure Air Temp Water Temp Dewpoint Dewpoint Depression Visibility Wind Speed Wind Dir Waves Ship Positions

Manitowoc

Owner: Grand River Navigation Company, Traverse City, MI. More information available from US FCC via Universal Licensing System and Coast Guard Vessel Documentation Center.

Last reported at 2017-Nov-24 19:00 UTC. Time now 2017-Nov-25 11:51 UTC.
Position N 44°12' W 083°00'.

Length 206 m; draft 7 m.

Type: Cargo ship. MMSI: 367341010.

Wind from 220 at 23 knots

Barometer 998.9 mb
Air temperature 8.3 ° C
Visibility: greater than 10.8 NM

Date/timePositionNaut miles runAvg speedWind from/ knotsBaromVisibWave heightAir tempDewpointWater temp
2017-Nov-24 19:00N 44°12' W 083°00'3612.0 220 / 23998.910.8 8.3
2017-Nov-24 16:00N 44°48' W 083°00'1212.0 210 / 331000.3 5.4 4.4
2017-Nov-24 15:00N 45°00' W 083°00'6 6.0 210 / 321000.310.8 3.8
2017-Nov-24 14:00N 45°06' W 083°00'3110.8 220 / 251001.010.8 3.8
2017-Nov-24 11:08N 45°26' W 083°33'111.9
2017-Nov-24 11:01N 45°27' W 083°35'611.8
2017-Nov-24 10:30N 45°29' W 083°43'611.8
2017-Nov-24 09:59N 45°32' W 083°51'611.8
2017-Nov-24 09:29N 45°35' W 083°58'2711.7
2017-Nov-24 07:09N 45°45' W 084°34'412.0
2017-Nov-24 06:51N 45°47' W 084°39'411.8
2017-Nov-24 06:30N 45°49' W 084°44'612.1
2017-Nov-24 06:00N 45°50' W 084°52'3245.7
2017-Nov-24 06:00N 45°48' W 084°48'1018.3 200 / 171006.410.8 2.7
2017-Nov-24 05:27N 45°51' W 085°02'4 8.7
2017-Nov-24 05:00N 45°48' W 085°06'723.5 220 / 281005.710.8 4.4
2017-Nov-24 04:41N 45°52' W 085°15'312.2
2017-Nov-24 04:28N 45°52' W 085°18'612.2
2017-Nov-24 04:00N 45°53' W 085°27'612.2
2017-Nov-24 03:30N 45°54' W 085°35'1311.2
2017-Nov-24 02:23N 45°57' W 085°53'1 2.2
2017-Nov-24 01:53N 45°58' W 085°52'0 0.0
2017-Nov-24 01:15N 45°58' W 085°52'0 0.0
2017-Nov-24 00:55N 45°58' W 085°52'0 0.0
2017-Nov-23 17:39N 45°58' W 085°52'0 0.0
2017-Nov-23 17:27N 45°58' W 085°52'0 0.0
2017-Nov-23 16:22N 45°58' W 085°52'0 0.7
2017-Nov-23 15:58N 45°58' W 085°52'3511.8
2017-Nov-23 13:00N 45°24' W 086°06'25342.1 270 / 201012.5 5.4 0.5
2017-Nov-23 07:00N 41°12' W 086°30'168168.1 250 / 241016.510.8 0.5
2017-Nov-23 06:00N 44°00' W 086°24'1514.8 240 / 231017.610.8 1.1
2017-Nov-23 05:00N 43°48' W 086°36'1818.0 240 / 181018.910.8 1.6
2017-Nov-23 04:00N 43°30' W 086°36'2010.0 220 / 201021.6 1.1
2017-Nov-23 02:00N 43°12' W 086°24'7 7.4 220 / 141021.6 1.1
2017-Nov-23 01:00N 43°06' W 086°18'   210 / 151021.3 0.5
2017-Nov-20 14:00N 44°54' W 086°12'1312.7 240 / 111008.410.8 3.3
2017-Nov-20 13:00N 44°42' W 086°18'40 2.3 250 / 151009.110.8 3.3
2017-Nov-19 19:19N 45°22' W 086°08'412.4
2017-Nov-19 19:01N 45°25' W 086°07'612.4
2017-Nov-19 18:30N 45°32' W 086°05'612.2
2017-Nov-19 18:00N 45°38' W 086°03'612.1
2017-Nov-19 17:30N 45°43' W 085°59'612.1
2017-Nov-19 17:01N 45°48' W 085°56'711.7
2017-Nov-19 16:25N 45°55' W 085°53'3 5.2
2017-Nov-19 15:49N 45°58' W 085°52'0 0.0
2017-Nov-19 15:25N 45°58' W 085°52'0 0.0
2017-Nov-19 13:37N 45°58' W 085°52'0 0.0
2017-Nov-19 09:49N 45°58' W 085°52'0 0.0
2017-Nov-19 06:37N 45°58' W 085°52'0 0.0
2017-Nov-19 06:25N 45°58' W 085°52'0 0.0
2017-Nov-19 04:41N 45°58' W 085°52'0 0.0
2017-Nov-19 04:27N 45°58' W 085°52'0 0.1
2017-Nov-19 04:00N 45°58' W 085°52'1 2.0
2017-Nov-19 03:30N 45°57' W 085°53'4 5.8
2017-Nov-19 02:53N 45°54' W 085°50'512.1
2017-Nov-19 02:30N 45°54' W 085°43'611.8
2017-Nov-19 02:00N 45°53' W 085°35'611.7
2017-Nov-19 01:30N 45°53' W 085°27'611.8
2017-Nov-19 01:00N 45°52' W 085°18'612.0
2017-Nov-19 00:30N 45°51' W 085°10'612.2
2017-Nov-19 00:00N 45°51' W 085°01'612.1
2017-Nov-18 23:30N 45°50' W 084°52'612.2
2017-Nov-18 23:00N 45°49' W 084°44'612.1
2017-Nov-18 22:30N 45°46' W 084°36'612.4
2017-Nov-18 22:00N 45°42' W 084°29'611.9
2017-Nov-18 21:29N 45°42' W 084°20'1512.2
2017-Nov-18 20:13N 45°35' W 083°60'312.5
2017-Nov-18 20:00N 45°34' W 083°57'612.5
2017-Nov-18 19:30N 45°31' W 083°49'612.5
2017-Nov-18 19:00N 45°28' W 083°40'612.6
2017-Nov-18 18:30N 45°25' W 083°32'612.2
2017-Nov-18 17:58N 45°22' W 083°25'6 0.3
2017-Nov-17 22:24N 45°25' W 083°32'511.8
2017-Nov-17 22:00N 45°27' W 083°38'611.8
2017-Nov-17 21:30N 45°30' W 083°46'611.8
2017-Nov-17 21:01N 45°32' W 083°53'611.8
2017-Nov-17 20:30N 45°35' W 084°01'2611.3
2017-Nov-17 18:15N 45°45' W 084°34'311.9
2017-Nov-17 17:59N 45°47' W 084°38'711.1
2017-Nov-17 17:19N 45°49' W 084°48'411.2
2017-Nov-17 17:00N 45°49' W 084°53'611.6
2017-Nov-17 16:30N 45°50' W 085°02'510.3
2017-Nov-17 16:00N 45°48' W 085°09'610.6
2017-Nov-17 15:27N 45°43' W 085°12'612.6
2017-Nov-17 15:01N 45°38' W 085°17'612.4
2017-Nov-17 14:30N 45°34' W 085°23'612.6
2017-Nov-17 14:00N 45°28' W 085°28'612.7
2017-Nov-17 13:30N 45°23' W 085°33'612.7
2017-Nov-17 13:00N 45°18' W 085°38'2118.4
2017-Nov-17 13:00N 45°18' W 085°36'715.1 180 / 201020.9 -0.0
2017-Nov-17 12:30N 45°13' W 085°44'  
Track history (hours):
 
Tides and Currents Weather Stations Pressure Air Temp Water Temp Dewpoint Dewpoint Depression Visibility Wind Speed Wind Dir Waves Ship Positions

Manitowoc

Owner: Grand River Navigation Company, Traverse City, MI. More information available from US FCC via Universal Licensing System and Coast Guard Vessel Documentation Center.

Last reported at 2017-Nov-24 19:00 UTC. Time now 2017-Nov-25 11:51 UTC.
Position N 44°12' W 083°00'.

Length 206 m; draft 7 m.

Type: Cargo ship. MMSI: 367341010.

Wind from 220 at 23 knots

Barometer 998.9 mb
Air temperature 8.3 ° C
Visibility: greater than 10.8 NM

Date/timePositionNaut miles runAvg speedWind from/ knotsBaromVisibWave heightAir tempDewpointWater temp
2017-Nov-24 19:00N 44°12' W 083°00'3612.0 220 / 23998.910.8 8.3
2017-Nov-24 16:00N 44°48' W 083°00'1212.0 210 / 331000.3 5.4 4.4
2017-Nov-24 15:00N 45°00' W 083°00'6 6.0 210 / 321000.310.8 3.8
2017-Nov-24 14:00N 45°06' W 083°00'3110.8 220 / 251001.010.8 3.8
2017-Nov-24 11:08N 45°26' W 083°33'111.9
2017-Nov-24 11:01N 45°27' W 083°35'611.8
2017-Nov-24 10:30N 45°29' W 083°43'611.8
2017-Nov-24 09:59N 45°32' W 083°51'611.8
2017-Nov-24 09:29N 45°35' W 083°58'2711.7
2017-Nov-24 07:09N 45°45' W 084°34'412.0
2017-Nov-24 06:51N 45°47' W 084°39'411.8
2017-Nov-24 06:30N 45°49' W 084°44'612.1
2017-Nov-24 06:00N 45°50' W 084°52'3245.7
2017-Nov-24 06:00N 45°48' W 084°48'1018.3 200 / 171006.410.8 2.7
2017-Nov-24 05:27N 45°51' W 085°02'4 8.7
2017-Nov-24 05:00N 45°48' W 085°06'723.5 220 / 281005.710.8 4.4
2017-Nov-24 04:41N 45°52' W 085°15'312.2
2017-Nov-24 04:28N 45°52' W 085°18'612.2
2017-Nov-24 04:00N 45°53' W 085°27'612.2
2017-Nov-24 03:30N 45°54' W 085°35'1311.2
2017-Nov-24 02:23N 45°57' W 085°53'1 2.2
2017-Nov-24 01:53N 45°58' W 085°52'0 0.0
2017-Nov-24 01:15N 45°58' W 085°52'0 0.0
2017-Nov-24 00:55N 45°58' W 085°52'0 0.0
2017-Nov-23 17:39N 45°58' W 085°52'0 0.0
2017-Nov-23 17:27N 45°58' W 085°52'0 0.0
2017-Nov-23 16:22N 45°58' W 085°52'0 0.7
2017-Nov-23 15:58N 45°58' W 085°52'3511.8
2017-Nov-23 13:00N 45°24' W 086°06'25342.1 270 / 201012.5 5.4 0.5
2017-Nov-23 07:00N 41°12' W 086°30'168168.1 250 / 241016.510.8 0.5
2017-Nov-23 06:00N 44°00' W 086°24'1514.8 240 / 231017.610.8 1.1
2017-Nov-23 05:00N 43°48' W 086°36'1818.0 240 / 181018.910.8 1.6
2017-Nov-23 04:00N 43°30' W 086°36'2010.0 220 / 201021.6 1.1
2017-Nov-23 02:00N 43°12' W 086°24'7 7.4 220 / 141021.6 1.1
2017-Nov-23 01:00N 43°06' W 086°18'   210 / 151021.3 0.5
2017-Nov-20 14:00N 44°54' W 086°12'1312.7 240 / 111008.410.8 3.3
2017-Nov-20 13:00N 44°42' W 086°18'40 2.3 250 / 151009.110.8 3.3
2017-Nov-19 19:19N 45°22' W 086°08'412.4
2017-Nov-19 19:01N 45°25' W 086°07'612.4
2017-Nov-19 18:30N 45°32' W 086°05'612.2
2017-Nov-19 18:00N 45°38' W 086°03'612.1
2017-Nov-19 17:30N 45°43' W 085°59'612.1
2017-Nov-19 17:01N 45°48' W 085°56'711.7
2017-Nov-19 16:25N 45°55' W 085°53'3 5.2
2017-Nov-19 15:49N 45°58' W 085°52'0 0.0
2017-Nov-19 15:25N 45°58' W 085°52'0 0.0
2017-Nov-19 13:37N 45°58' W 085°52'0 0.0
2017-Nov-19 09:49N 45°58' W 085°52'0 0.0
2017-Nov-19 06:37N 45°58' W 085°52'0 0.0
2017-Nov-19 06:25N 45°58' W 085°52'0 0.0
2017-Nov-19 04:41N 45°58' W 085°52'0 0.0
2017-Nov-19 04:27N 45°58' W 085°52'0 0.1
2017-Nov-19 04:00N 45°58' W 085°52'1 2.0
2017-Nov-19 03:30N 45°57' W 085°53'4 5.8
2017-Nov-19 02:53N 45°54' W 085°50'512.1
2017-Nov-19 02:30N 45°54' W 085°43'611.8
2017-Nov-19 02:00N 45°53' W 085°35'611.7
2017-Nov-19 01:30N 45°53' W 085°27'611.8
2017-Nov-19 01:00N 45°52' W 085°18'612.0
2017-Nov-19 00:30N 45°51' W 085°10'612.2
2017-Nov-19 00:00N 45°51' W 085°01'612.1
2017-Nov-18 23:30N 45°50' W 084°52'612.2
2017-Nov-18 23:00N 45°49' W 084°44'612.1
2017-Nov-18 22:30N 45°46' W 084°36'612.4
2017-Nov-18 22:00N 45°42' W 084°29'611.9
2017-Nov-18 21:29N 45°42' W 084°20'1512.2
2017-Nov-18 20:13N 45°35' W 083°60'312.5
2017-Nov-18 20:00N 45°34' W 083°57'612.5
2017-Nov-18 19:30N 45°31' W 083°49'612.5
2017-Nov-18 19:00N 45°28' W 083°40'612.6
2017-Nov-18 18:30N 45°25' W 083°32'612.2
2017-Nov-18 17:58N 45°22' W 083°25'6 0.3
2017-Nov-17 22:24N 45°25' W 083°32'511.8
2017-Nov-17 22:00N 45°27' W 083°38'611.8
2017-Nov-17 21:30N 45°30' W 083°46'611.8
2017-Nov-17 21:01N 45°32' W 083°53'611.8
2017-Nov-17 20:30N 45°35' W 084°01'2611.3
2017-Nov-17 18:15N 45°45' W 084°34'311.9
2017-Nov-17 17:59N 45°47' W 084°38'711.1
2017-Nov-17 17:19N 45°49' W 084°48'411.2
2017-Nov-17 17:00N 45°49' W 084°53'611.6
2017-Nov-17 16:30N 45°50' W 085°02'510.3
2017-Nov-17 16:00N 45°48' W 085°09'610.6
2017-Nov-17 15:27N 45°43' W 085°12'612.6
2017-Nov-17 15:01N 45°38' W 085°17'612.4
2017-Nov-17 14:30N 45°34' W 085°23'612.6
2017-Nov-17 14:00N 45°28' W 085°28'612.7
2017-Nov-17 13:30N 45°23' W 085°33'612.7
2017-Nov-17 13:00N 45°18' W 085°38'2118.4
2017-Nov-17 13:00N 45°18' W 085°36'715.1 180 / 201020.9 -0.0
2017-Nov-17 12:30N 45°13' W 085°44'  

Dump ship's entire track history